createdAt,value
2022-12-17T00:01:53.821Z,99460.38
2022-12-17T00:04:38.946Z,99461.97
2022-12-17T00:07:24.307Z,99466.19
2022-12-17T00:10:09.570Z,99465.84
2022-12-17T00:12:56.289Z,99470.81
2022-12-17T00:15:43.197Z,99474.16
2022-12-17T00:18:28.474Z,99471.53
2022-12-17T00:21:15.357Z,99475.97
2022-12-17T00:24:00.737Z,99486.19
2022-12-17T00:26:46.031Z,99481.19
2022-12-17T00:29:31.435Z,99482.78
2022-12-17T00:32:17.241Z,99482.91
2022-12-17T00:35:02.489Z,99484.72
2022-12-17T00:37:47.770Z,99502.41
2022-12-17T00:40:32.890Z,99494.28
2022-12-17T00:43:23.935Z,99504.44
2022-12-17T00:46:10.069Z,99500.19
2022-12-17T00:48:55.515Z,99505.56
2022-12-17T00:51:42.275Z,99508.09
2022-12-17T00:54:27.516Z,99512.72
2022-12-17T00:57:12.734Z,99511.00
2022-12-17T00:59:58.301Z,99523.81
2022-12-17T01:02:44.322Z,99520.03
2022-12-17T01:05:30.528Z,99519.94
2022-12-17T01:08:15.778Z,99527.53
2022-12-17T01:11:01.386Z,99523.94
2022-12-17T01:13:47.028Z,99525.75
2022-12-17T01:16:33.285Z,99528.63
2022-12-17T01:19:18.630Z,99534.91
2022-12-17T01:22:04.865Z,99530.84
2022-12-17T01:24:50.175Z,99544.72
2022-12-17T01:27:35.636Z,99534.06
2022-12-17T01:30:20.874Z,99545.06
2022-12-17T01:33:06.105Z,99550.09
2022-12-17T01:35:51.013Z,99543.50
2022-12-17T01:38:37.842Z,99547.41
2022-12-17T01:41:24.962Z,99545.91
2022-12-17T01:44:10.199Z,99552.84
2022-12-17T01:46:59.001Z,99554.59
2022-12-17T01:49:45.772Z,99549.28
2022-12-17T01:52:32.595Z,99549.41
2022-12-17T01:55:17.881Z,99560.47
2022-12-17T01:58:03.537Z,99560.97
2022-12-17T02:00:48.583Z,99564.59
2022-12-17T02:03:35.441Z,99571.75
2022-12-17T02:06:44.207Z,99575.91
2022-12-17T02:09:43.322Z,99572.63
2022-12-17T02:12:50.538Z,99582.63
2022-12-17T02:15:47.943Z,99575.94
2022-12-17T02:18:37.949Z,99582.97
2022-12-17T02:21:24.787Z,99584.78
2022-12-17T02:24:55.313Z,99588.34
2022-12-17T02:27:41.425Z,99598.56
2022-12-17T02:30:27.903Z,99589.44
2022-12-17T02:33:14.041Z,99589.44
2022-12-17T02:36:05.381Z,99598.69
2022-12-17T02:38:51.125Z,99595.56
2022-12-17T02:41:47.211Z,99599.44
2022-12-17T02:44:37.336Z,99597.78
2022-12-17T02:47:25.094Z,99600.44
2022-12-17T02:50:10.706Z,99602.00
2022-12-17T02:52:59.945Z,99603.81
2022-12-17T02:55:44.916Z,99608.56
2022-12-17T02:58:30.340Z,99608.44
2022-12-17T03:01:15.802Z,99608.69
2022-12-17T03:04:01.255Z,99606.81
2022-12-17T03:06:46.720Z,99613.38
2022-12-17T03:09:32.009Z,99609.13
2022-12-17T03:12:17.397Z,99614.59
2022-12-17T03:15:02.597Z,99605.63
2022-12-17T03:17:48.975Z,99606.69
2022-12-17T03:20:34.132Z,99618.34
2022-12-17T03:23:24.041Z,99628.16
2022-12-17T03:26:09.384Z,99629.94
2022-12-17T03:28:54.653Z,99633.28
2022-12-17T03:31:40.027Z,99623.88
2022-12-17T03:34:25.513Z,99635.81
2022-12-17T03:37:10.545Z,99633.75
2022-12-17T03:39:55.731Z,99638.09
2022-12-17T03:42:41.182Z,99644.25
2022-12-17T03:45:43.583Z,99642.81
2022-12-17T03:48:31.472Z,99644.44
2022-12-17T03:51:17.282Z,99640.03
2022-12-17T03:54:03.132Z,99648.84
2022-12-17T03:56:48.856Z,99653.59
2022-12-17T03:59:34.117Z,99646.78
2022-12-17T04:02:19.684Z,99650.72
2022-12-17T04:05:04.868Z,99660.59
2022-12-17T04:07:50.439Z,99653.78
2022-12-17T04:10:35.901Z,99656.81
2022-12-17T04:13:21.292Z,99651.56
2022-12-17T04:16:06.587Z,99656.69
2022-12-17T04:18:51.737Z,99661.75
2022-12-17T04:21:37.173Z,99663.63
2022-12-17T04:24:22.629Z,99661.66
2022-12-17T04:27:07.745Z,99665.38
2022-12-17T04:29:53.171Z,99664.84
2022-12-17T04:32:38.376Z,99674.50
2022-12-17T04:35:24.139Z,99675.66
2022-12-17T04:38:09.445Z,99680.38
2022-12-17T04:40:54.780Z,99685.56
2022-12-17T04:43:40.237Z,99686.44
2022-12-17T04:46:25.632Z,99684.53
2022-12-17T04:49:11.062Z,99689.16
2022-12-17T04:51:56.321Z,99689.06
2022-12-17T04:54:41.714Z,99687.50
2022-12-17T04:57:27.099Z,99687.47
2022-12-17T05:00:12.443Z,99687.66
2022-12-17T05:02:57.597Z,99687.13
2022-12-17T05:05:42.805Z,99691.88
2022-12-17T05:08:28.013Z,99697.81
2022-12-17T05:11:13.334Z,99698.06
2022-12-17T05:13:58.777Z,99705.66
2022-12-17T05:16:43.845Z,99708.34
2022-12-17T05:19:29.020Z,99705.66
2022-12-17T05:22:14.224Z,99707.66
2022-12-17T05:24:59.642Z,99716.00
2022-12-17T05:27:45.089Z,99721.47
2022-12-17T05:30:30.719Z,99720.31
2022-12-17T05:33:20.667Z,99728.81
2022-12-17T05:36:05.790Z,99725.47
2022-12-17T05:38:51.410Z,99734.03
2022-12-17T05:41:37.302Z,99736.28
2022-12-17T05:44:22.514Z,99740.94
2022-12-17T05:47:07.797Z,99739.72
2022-12-17T05:49:53.235Z,99736.16
2022-12-17T05:52:41.953Z,99739.53
2022-12-17T05:55:28.001Z,99740.97
2022-12-17T05:58:21.465Z,99745.19
2022-12-17T06:01:06.806Z,99751.16
2022-12-17T06:03:52.256Z,99742.41
2022-12-17T06:06:37.512Z,99752.59
2022-12-17T06:09:22.784Z,99757.34
2022-12-17T06:12:15.321Z,99751.09
2022-12-17T06:15:00.399Z,99756.28
2022-12-17T06:17:45.754Z,99759.78
2022-12-17T06:20:30.999Z,99765.72
2022-12-17T06:23:20.335Z,99767.22
2022-12-17T06:26:05.913Z,99764.84
2022-12-17T06:28:51.380Z,99767.66
2022-12-17T06:31:36.786Z,99775.13
2022-12-17T06:34:22.067Z,99778.41
2022-12-17T06:37:07.372Z,99785.19
2022-12-17T06:39:52.520Z,99784.50
2022-12-17T06:42:37.938Z,99793.00
2022-12-17T06:45:23.595Z,99807.63
2022-12-17T06:48:19.540Z,99807.00
2022-12-17T06:51:04.801Z,99805.72
2022-12-17T06:53:50.325Z,99810.91
2022-12-17T06:56:35.866Z,99803.97
2022-12-17T06:59:21.276Z,99806.50
2022-12-17T07:02:06.806Z,99815.13
2022-12-17T07:04:52.058Z,99818.41
2022-12-17T07:07:41.697Z,99822.84
2022-12-17T07:10:27.127Z,99825.31
2022-12-17T07:13:12.112Z,99831.91
2022-12-17T07:16:11.251Z,99838.91
2022-12-17T07:18:56.807Z,99842.38
2022-12-17T07:21:42.334Z,99842.22
2022-12-17T07:24:27.909Z,99841.47
2022-12-17T07:27:13.940Z,99842.19
2022-12-17T07:29:59.138Z,99857.03
2022-12-17T07:32:44.258Z,99853.56
2022-12-17T07:35:29.770Z,99855.84
2022-12-17T07:38:19.480Z,99857.97
2022-12-17T07:41:04.831Z,99868.25
2022-12-17T07:43:53.139Z,99876.84
2022-12-17T07:46:38.972Z,99884.06
2022-12-17T07:49:25.942Z,99892.50
2022-12-17T07:52:11.888Z,99893.88
2022-12-17T07:54:57.166Z,99895.50
2022-12-17T07:57:42.886Z,99888.81
2022-12-17T08:00:28.927Z,99894.06
2022-12-17T08:03:18.385Z,99914.78
2022-12-17T08:06:03.836Z,99911.06
2022-12-17T08:08:49.052Z,99909.38
2022-12-17T08:11:34.214Z,99916.56
2022-12-17T08:14:19.475Z,99925.31
2022-12-17T08:17:04.856Z,99936.16
2022-12-17T08:19:50.191Z,99932.94
2022-12-17T08:22:35.525Z,99941.47
2022-12-17T08:25:20.880Z,99944.03
2022-12-17T08:28:11.113Z,99947.78
2022-12-17T08:31:07.704Z,99947.13
2022-12-17T08:33:53.892Z,99939.03
2022-12-17T08:36:39.170Z,99954.06
2022-12-17T08:39:24.633Z,99950.53
2022-12-17T08:42:09.751Z,99947.34
2022-12-17T08:44:55.009Z,99957.59
2022-12-17T08:47:42.588Z,99966.84
2022-12-17T08:50:28.112Z,99967.28
2022-12-17T08:53:20.789Z,99960.28
2022-12-17T08:56:06.090Z,99968.31
2022-12-17T08:58:57.172Z,99967.25
2022-12-17T09:01:44.509Z,99972.41
2022-12-17T09:04:29.878Z,99976.00
2022-12-17T09:07:15.710Z,99970.13
2022-12-17T09:10:01.151Z,99968.44
2022-12-17T09:12:46.535Z,99978.19
2022-12-17T09:15:32.531Z,99977.84
2022-12-17T09:18:17.890Z,99978.41
2022-12-17T09:21:03.054Z,99983.50
2022-12-17T09:23:48.172Z,99982.66
2022-12-17T09:26:33.965Z,99985.06
2022-12-17T09:29:19.268Z,99983.28
2022-12-17T09:32:04.641Z,99992.44
2022-12-17T09:34:50.055Z,99993.50
2022-12-17T09:37:35.364Z,100001.09
2022-12-17T09:40:20.699Z,100006.91
2022-12-17T09:43:25.080Z,100002.59
2022-12-17T09:46:19.590Z,99998.56
2022-12-17T09:49:16.097Z,100001.00
2022-12-17T09:52:01.331Z,100000.91
2022-12-17T09:54:55.101Z,100004.53
2022-12-17T09:57:47.197Z,100002.75
2022-12-17T10:00:50.520Z,100012.81
2022-12-17T10:03:38.587Z,100009.84
2022-12-17T10:06:29.910Z,100006.81
2022-12-17T10:09:18.288Z,100012.09
2022-12-17T10:12:03.602Z,100006.81
2022-12-17T10:14:49.411Z,100009.78
2022-12-17T10:17:40.472Z,100004.03
2022-12-17T10:20:59.799Z,99999.84
2022-12-17T10:23:50.152Z,100009.38
2022-12-17T10:26:46.634Z,100004.03
2022-12-17T10:29:40.178Z,100010.38
2022-12-17T10:32:42.044Z,100006.09
2022-12-17T10:35:38.425Z,100006.66
2022-12-17T10:38:41.176Z,100006.59
2022-12-17T10:41:47.067Z,100012.84
2022-12-17T10:44:53.645Z,100013.03
2022-12-17T10:47:41.899Z,100013.78
2022-12-17T10:50:39.734Z,100010.13
2022-12-17T10:53:37.132Z,100013.78
2022-12-17T10:56:23.762Z,100013.56
2022-12-17T10:59:11.848Z,100012.53
2022-12-17T11:02:01.541Z,100022.09
2022-12-17T11:04:56.180Z,100016.50
2022-12-17T11:07:55.991Z,100018.31
2022-12-17T11:10:43.634Z,100019.75
2022-12-17T11:13:32.243Z,100029.94
2022-12-17T11:16:18.025Z,100027.00
2022-12-17T11:19:15.990Z,100025.91
2022-12-17T11:22:03.974Z,100031.28
2022-12-17T11:25:16.607Z,100032.59
2022-12-17T11:28:10.527Z,100034.75
2022-12-17T11:31:07.228Z,100029.41
2022-12-17T11:34:18.452Z,100019.03
2022-12-17T11:37:26.991Z,100016.25
2022-12-17T11:40:20.834Z,100021.28
2022-12-17T11:43:16.455Z,100025.66
2022-12-17T11:46:38.523Z,100026.50
2022-12-17T11:50:02.722Z,100035.31
2022-12-17T11:53:36.572Z,100031.88
2022-12-17T11:56:42.421Z,100042.91
2022-12-17T12:00:14.049Z,100036.97
2022-12-17T12:03:38.502Z,100039.44
2022-12-17T12:06:33.259Z,100039.19
2022-12-17T12:09:32.916Z,100036.72
2022-12-17T12:12:37.056Z,100034.22
2022-12-17T12:15:38.539Z,100031.84
2022-12-17T12:18:32.084Z,100037.09
2022-12-17T12:21:35.982Z,100038.94
2022-12-17T12:24:51.914Z,100040.31
2022-12-17T12:27:46.572Z,100028.81
2022-12-17T12:30:35.168Z,100037.16
2022-12-17T12:33:58.518Z,100034.66
2022-12-17T12:36:44.623Z,100030.25
2022-12-17T12:39:34.410Z,100032.16
2022-12-17T12:42:34.247Z,100034.44
2022-12-17T12:45:34.747Z,100038.59
2022-12-17T12:48:48.566Z,100050.06
2022-12-17T12:51:45.450Z,100045.59
2022-12-17T12:54:50.139Z,100048.78
2022-12-17T12:57:56.270Z,100046.88
2022-12-17T13:01:02.115Z,100050.69
2022-12-17T13:03:53.159Z,100055.00
2022-12-17T13:06:55.069Z,100054.81
2022-12-17T13:09:33.893Z,100045.56
2022-12-17T13:12:04.397Z,100053.16
2022-12-17T13:14:55.241Z,100054.59
2022-12-17T13:17:41.581Z,100047.81
2022-12-17T13:20:30.051Z,100047.00
2022-12-17T13:23:12.106Z,100047.91
2022-12-17T13:25:38.764Z,100048.31
2022-12-17T13:28:05.916Z,100051.06
2022-12-17T13:30:37.273Z,100051.19
2022-12-17T13:33:40.225Z,100051.69
2022-12-17T13:36:18.380Z,100068.75
2022-12-17T13:39:14.469Z,100065.09
2022-12-17T13:41:41.180Z,100067.44
2022-12-17T13:44:29.901Z,100065.47
2022-12-17T13:46:56.653Z,100060.13
2022-12-17T13:49:28.835Z,100059.81
2022-12-17T13:52:21.582Z,100064.00
2022-12-17T13:54:48.342Z,100059.00
2022-12-17T13:57:20.650Z,100062.50
2022-12-17T13:59:56.261Z,100055.50
2022-12-17T14:02:27.584Z,100060.81
2022-12-17T14:04:56.289Z,100064.41
2022-12-17T14:07:25.816Z,100073.88
2022-12-17T14:09:53.226Z,100081.59
2022-12-17T14:12:24.936Z,100076.44
2022-12-17T14:14:57.573Z,100080.78
2022-12-17T14:17:37.991Z,100085.03
2022-12-17T14:20:08.125Z,100093.53
2022-12-17T14:22:41.517Z,100082.47
2022-12-17T14:25:19.336Z,100085.94
2022-12-17T14:27:53.300Z,100082.00
2022-12-17T14:30:46.313Z,100083.59
2022-12-17T14:33:28.348Z,100085.38
2022-12-17T14:35:56.350Z,100091.47
2022-12-17T14:38:48.334Z,100090.50
2022-12-17T14:41:37.962Z,100094.63
2022-12-17T14:44:04.943Z,100099.94
2022-12-17T14:46:33.604Z,100088.09
2022-12-17T14:49:03.686Z,100091.44
2022-12-17T14:51:32.002Z,100085.31
2022-12-17T14:54:25.897Z,100092.19
2022-12-17T14:56:54.873Z,100095.34
2022-12-17T14:59:52.571Z,100098.53
2022-12-17T15:02:27.954Z,100099.72
2022-12-17T15:04:57.967Z,100111.72
2022-12-17T15:07:26.798Z,100111.25
2022-12-17T15:09:54.806Z,100112.66
2022-12-17T15:12:22.848Z,100119.06
2022-12-17T15:14:49.740Z,100107.00
2022-12-17T15:17:17.187Z,100110.56
2022-12-17T15:19:44.096Z,100108.19
2022-12-17T15:22:15.792Z,100115.94
2022-12-17T15:24:43.329Z,100120.56
2022-12-17T15:27:17.113Z,100119.47
2022-12-17T15:29:44.565Z,100122.19
2022-12-17T15:32:22.267Z,100135.00
2022-12-17T15:34:50.695Z,100130.50
2022-12-17T15:37:21.082Z,100133.69
2022-12-17T15:39:51.339Z,100133.00
2022-12-17T15:42:36.549Z,100128.69
2022-12-17T15:45:07.478Z,100131.44
2022-12-17T15:47:34.418Z,100123.47
2022-12-17T15:50:01.356Z,100136.31
2022-12-17T15:52:28.031Z,100129.78
2022-12-17T15:54:54.846Z,100129.47
2022-12-17T15:57:21.554Z,100126.78
2022-12-17T15:59:48.301Z,100135.91
2022-12-17T16:02:15.181Z,100137.56
2022-12-17T16:04:41.889Z,100131.09
2022-12-17T16:07:09.146Z,100137.06
2022-12-17T16:09:35.839Z,100142.13
2022-12-17T16:12:02.510Z,100138.66
2022-12-17T16:14:29.252Z,100143.28
2022-12-17T16:16:55.991Z,100140.94
2022-12-17T16:19:22.659Z,100142.47
2022-12-17T16:21:49.489Z,100144.19
2022-12-17T16:24:16.207Z,100145.13
2022-12-17T16:26:42.995Z,100148.59
2022-12-17T16:29:09.711Z,100147.69
2022-12-17T16:31:36.525Z,100149.94
2022-12-17T16:34:03.371Z,100149.72
2022-12-17T16:36:30.054Z,100154.53
2022-12-17T16:38:56.741Z,100150.78
2022-12-17T16:41:23.719Z,100153.75
2022-12-17T16:43:50.524Z,100154.66
2022-12-17T16:46:29.205Z,100150.38
2022-12-17T16:48:57.298Z,100156.16
2022-12-17T16:51:29.351Z,100152.75
2022-12-17T16:53:57.331Z,100155.44
2022-12-17T16:56:27.816Z,100159.81
2022-12-17T16:58:55.493Z,100170.84
2022-12-17T17:01:27.607Z,100164.91
2022-12-17T17:03:55.104Z,100170.75
2022-12-17T17:06:22.132Z,100175.06
2022-12-17T17:08:49.330Z,100174.59
2022-12-17T17:11:22.139Z,100179.97
2022-12-17T17:13:50.294Z,100182.03
2022-12-17T17:16:18.552Z,100194.31
2022-12-17T17:18:45.462Z,100197.69
2022-12-17T17:21:28.449Z,100199.47
2022-12-17T17:24:01.471Z,100202.72
2022-12-17T17:26:30.015Z,100203.69
2022-12-17T17:28:57.006Z,100211.75
2022-12-17T17:31:26.648Z,100207.94
2022-12-17T17:33:57.390Z,100210.22
2022-12-17T17:36:29.020Z,100207.31
2022-12-17T17:38:58.159Z,100215.72
2022-12-17T17:41:27.740Z,100212.34
2022-12-17T17:43:56.035Z,100215.53
2022-12-17T17:46:23.214Z,100212.16
2022-12-17T17:48:56.616Z,100216.97
2022-12-17T17:51:51.994Z,100224.34
2022-12-17T17:54:14.366Z,100219.31
2022-12-17T17:56:42.024Z,100224.06
2022-12-17T17:59:11.344Z,100227.69
2022-12-17T18:01:43.704Z,100221.91
2022-12-17T18:04:12.877Z,100218.94
2022-12-17T18:06:52.979Z,100220.56
2022-12-17T18:09:27.933Z,100220.38
2022-12-17T18:11:54.728Z,100217.53
2022-12-17T18:14:21.418Z,100213.94
2022-12-17T18:16:48.793Z,100229.69
2022-12-17T18:19:21.868Z,100229.91
2022-12-17T18:21:49.367Z,100237.50
2022-12-17T18:24:23.822Z,100237.06
2022-12-17T18:26:51.901Z,100240.13
2022-12-17T18:29:23.590Z,100251.25
2022-12-17T18:31:52.044Z,100234.63
2022-12-17T18:34:21.592Z,100248.47
2022-12-17T18:36:49.789Z,100254.47
2022-12-17T18:39:22.354Z,100252.00
2022-12-17T18:42:08.787Z,100244.19
2022-12-17T18:44:41.919Z,100250.31
2022-12-17T18:47:09.831Z,100258.28
2022-12-17T18:49:36.732Z,100258.25
2022-12-17T18:52:04.794Z,100258.94
2022-12-17T18:54:31.899Z,100259.03
2022-12-17T18:57:01.314Z,100262.50
2022-12-17T18:59:30.088Z,100260.88
2022-12-17T19:01:57.427Z,100258.50
2022-12-17T19:04:25.498Z,100252.72
2022-12-17T19:06:53.828Z,100248.47
2022-12-17T19:09:40.333Z,100260.59
2022-12-17T19:12:08.745Z,100263.00
2022-12-17T19:14:36.369Z,100262.22
2022-12-17T19:17:03.427Z,100267.34
2022-12-17T19:19:30.142Z,100266.84
2022-12-17T19:21:57.096Z,100278.81
2022-12-17T19:24:23.896Z,100268.53
2022-12-17T19:26:51.425Z,100277.72
2022-12-17T19:29:19.402Z,100275.94
2022-12-17T19:31:46.286Z,100272.59
2022-12-17T19:34:15.115Z,100275.13
2022-12-17T19:36:42.545Z,100285.41
2022-12-17T19:39:12.351Z,100276.78
2022-12-17T19:41:39.063Z,100277.00
2022-12-17T19:44:07.848Z,100285.59
2022-12-17T19:46:36.373Z,100272.31
2022-12-17T19:49:04.731Z,100275.53
2022-12-17T19:51:32.470Z,100275.41
2022-12-17T19:54:06.395Z,100268.63
2022-12-17T19:56:35.366Z,100275.56
2022-12-17T19:59:07.312Z,100278.91
2022-12-17T20:01:40.488Z,100278.91
2022-12-17T20:04:07.208Z,100280.59
2022-12-17T20:06:35.510Z,100284.06
2022-12-17T20:09:04.552Z,100283.91
2022-12-17T20:11:34.501Z,100280.50
2022-12-17T20:14:28.795Z,100298.34
2022-12-17T20:16:59.842Z,100286.25
2022-12-17T20:19:31.290Z,100294.22
2022-12-17T20:22:02.197Z,100290.06
2022-12-17T20:24:32.010Z,100285.97
2022-12-17T20:26:59.702Z,100291.91
2022-12-17T20:29:26.506Z,100293.59
2022-12-17T20:31:53.884Z,100298.72
2022-12-17T20:34:20.770Z,100304.91
2022-12-17T20:36:47.506Z,100300.66
2022-12-17T20:39:14.325Z,100304.06
2022-12-17T20:41:42.008Z,100307.59
2022-12-17T20:44:12.330Z,100300.75
2022-12-17T20:46:41.336Z,100289.72
2022-12-17T20:49:08.583Z,100302.56
2022-12-17T20:51:35.578Z,100299.97
2022-12-17T20:54:02.923Z,100312.78
2022-12-17T20:56:32.134Z,100317.16
2022-12-17T20:59:02.600Z,100324.81
2022-12-17T21:01:30.894Z,100319.72
2022-12-17T21:03:58.310Z,100330.84
2022-12-17T21:06:28.144Z,100324.84
2022-12-17T21:08:55.269Z,100326.56
2022-12-17T21:11:24.804Z,100331.59
2022-12-17T21:13:52.088Z,100340.34
2022-12-17T21:16:21.826Z,100339.56
2022-12-17T21:18:49.150Z,100341.25
2022-12-17T21:21:19.473Z,100340.28
2022-12-17T21:23:47.581Z,100336.19
2022-12-17T21:26:23.382Z,100337.88
2022-12-17T21:28:52.714Z,100344.69
2022-12-17T21:31:41.262Z,100345.56
2022-12-17T21:34:11.736Z,100349.06
2022-12-17T21:36:39.054Z,100350.00
2022-12-17T21:39:09.273Z,100351.63
2022-12-17T21:41:38.587Z,100356.91
2022-12-17T21:44:08.113Z,100355.28
2022-12-17T21:46:35.359Z,100347.59
2022-12-17T21:49:03.708Z,100351.91
2022-12-17T21:51:32.050Z,100357.03
2022-12-17T21:54:08.531Z,100367.34
2022-12-17T21:56:36.388Z,100369.94
2022-12-17T21:59:03.475Z,100367.41
2022-12-17T22:01:32.635Z,100359.00
2022-12-17T22:04:01.607Z,100361.56
2022-12-17T22:06:33.135Z,100363.22
2022-12-17T22:09:24.192Z,100353.81
2022-12-17T22:12:13.385Z,100354.69
2022-12-17T22:14:40.184Z,100361.44
2022-12-17T22:17:06.858Z,100367.47
2022-12-17T22:19:34.023Z,100365.72
2022-12-17T22:22:00.702Z,100367.47
2022-12-17T22:24:27.404Z,100376.06
2022-12-17T22:27:00.464Z,100371.75
2022-12-17T22:29:46.832Z,100387.16
2022-12-17T22:32:32.136Z,100389.63
2022-12-17T22:36:18.061Z,100397.34
2022-12-17T22:42:19.635Z,100383.78
2022-12-17T22:44:22.060Z,100388.09
2022-12-17T22:44:45.479Z,100389.78
2022-12-17T22:46:19.688Z,100393.16
2022-12-17T22:48:47.065Z,100387.97
2022-12-17T22:51:21.367Z,100387.22
2022-12-17T22:53:54.021Z,100393.09
2022-12-17T22:56:39.891Z,100388.06
2022-12-17T22:59:08.418Z,100403.47
2022-12-17T23:01:35.475Z,100397.41
2022-12-17T23:04:03.257Z,100400.88
2022-12-17T23:06:30.224Z,100409.47
2022-12-17T23:08:59.157Z,100397.53
2022-12-17T23:11:27.740Z,100394.13
2022-12-17T23:13:55.071Z,100395.84
2022-12-17T23:16:22.135Z,100391.59
2022-12-17T23:18:52.136Z,100387.34
2022-12-17T23:21:22.116Z,100394.06
2022-12-17T23:23:48.923Z,100391.47
2022-12-17T23:26:21.132Z,100396.78
2022-12-17T23:28:47.885Z,100387.34
2022-12-17T23:31:19.844Z,100386.44
2022-12-17T23:33:47.263Z,100383.84
2022-12-17T23:36:18.870Z,100395.75
2022-12-17T23:38:46.205Z,100389.00
2022-12-17T23:41:24.770Z,100390.72
2022-12-17T23:43:51.681Z,100390.78
2022-12-17T23:46:19.665Z,100393.38
2022-12-17T23:48:47.785Z,100396.75
2022-12-17T23:51:16.483Z,100395.06
2022-12-17T23:53:43.964Z,100391.66
2022-12-17T23:56:20.111Z,100388.34
2022-12-17T23:58:47.658Z,100386.59
